createdAt,value
2023-05-22T00:01:37.713Z,8.38
2023-05-22T00:04:04.511Z,8.00
2023-05-22T00:06:31.284Z,8.23
2023-05-22T00:08:57.822Z,8.18
2023-05-22T00:11:24.486Z,8.27
2023-05-22T00:13:51.338Z,8.90
2023-05-22T00:16:17.967Z,7.63
2023-05-22T00:18:44.794Z,9.13
2023-05-22T00:21:11.699Z,8.90
2023-05-22T00:23:44.184Z,8.88
2023-05-22T00:26:14.777Z,8.95
2023-05-22T00:28:44.349Z,10.20
2023-05-22T00:31:11.378Z,9.77
2023-05-22T00:33:38.408Z,9.43
2023-05-22T00:36:05.267Z,9.55
2023-05-22T00:38:33.197Z,10.00
2023-05-22T00:41:00.289Z,10.13
2023-05-22T00:43:32.008Z,9.75
2023-05-22T00:46:01.461Z,10.27
2023-05-22T00:48:28.022Z,9.68
2023-05-22T00:50:55.998Z,10.40
2023-05-22T00:53:24.945Z,9.60
2023-05-22T00:55:53.285Z,10.15
2023-05-22T00:58:20.322Z,8.90
2023-05-22T01:00:47.463Z,9.38
2023-05-22T01:03:16.134Z,8.77
2023-05-22T01:05:43.537Z,9.20
2023-05-22T01:08:10.231Z,9.07
2023-05-22T01:10:43.006Z,8.73
2023-05-22T01:13:14.907Z,9.40
2023-05-22T01:15:52.036Z,9.40
2023-05-22T01:18:31.846Z,9.50
2023-05-22T01:21:22.144Z,8.75
2023-05-22T01:24:11.654Z,9.57
2023-05-22T01:26:38.248Z,9.75
2023-05-22T01:29:23.256Z,9.88
2023-05-22T01:31:50.917Z,9.18
2023-05-22T01:34:18.707Z,9.55
2023-05-22T01:36:47.255Z,9.98
2023-05-22T01:39:14.604Z,10.13
2023-05-22T01:41:41.435Z,10.10
2023-05-22T01:44:07.991Z,9.80
2023-05-22T01:46:34.724Z,9.82
2023-05-22T01:49:01.336Z,9.50
2023-05-22T01:51:36.862Z,9.82
2023-05-22T01:54:09.355Z,10.43
2023-05-22T01:56:41.599Z,10.60
2023-05-22T01:59:15.192Z,10.73
2023-05-22T02:01:45.346Z,11.63
2023-05-22T02:04:14.024Z,11.95
2023-05-22T02:06:43.101Z,11.48
2023-05-22T02:09:10.711Z,11.50
2023-05-22T02:11:41.709Z,11.55
2023-05-22T02:14:09.254Z,12.20
2023-05-22T02:16:36.348Z,12.90
2023-05-22T02:19:06.511Z,13.02
2023-05-22T02:21:35.477Z,13.02
2023-05-22T02:24:02.720Z,12.52
2023-05-22T02:26:29.556Z,13.50
2023-05-22T02:28:56.477Z,12.35
2023-05-22T02:31:25.189Z,12.02
2023-05-22T02:33:52.204Z,12.48
2023-05-22T02:36:19.656Z,12.50
2023-05-22T02:38:47.421Z,12.15
2023-05-22T02:41:14.193Z,11.85
2023-05-22T02:43:40.965Z,11.75
2023-05-22T02:46:07.745Z,12.88
2023-05-22T02:48:34.203Z,11.57
2023-05-22T02:51:01.215Z,11.55
2023-05-22T02:53:28.039Z,11.07
2023-05-22T02:55:58.918Z,11.88
2023-05-22T02:58:26.996Z,11.10
2023-05-22T03:00:53.747Z,11.63
2023-05-22T03:03:23.525Z,11.77
2023-05-22T03:05:53.757Z,10.98
2023-05-22T03:08:21.074Z,10.57
2023-05-22T03:10:47.702Z,10.95
2023-05-22T03:13:14.298Z,10.82
2023-05-22T03:15:42.723Z,11.02
2023-05-22T03:18:13.600Z,10.40
2023-05-22T03:20:41.906Z,10.30
2023-05-22T03:23:09.007Z,10.10
2023-05-22T03:25:35.608Z,10.50
2023-05-22T03:28:02.592Z,10.77
2023-05-22T03:30:33.632Z,11.00
2023-05-22T03:33:10.098Z,10.65
2023-05-22T03:35:36.907Z,11.23
2023-05-22T03:38:04.058Z,11.52
2023-05-22T03:40:30.758Z,10.52
2023-05-22T03:42:57.395Z,11.05
2023-05-22T03:45:24.354Z,10.38
2023-05-22T03:47:50.960Z,11.73
2023-05-22T03:50:17.712Z,10.45
2023-05-22T03:52:45.252Z,11.23
2023-05-22T03:55:12.092Z,10.50
2023-05-22T03:57:38.634Z,11.35
2023-05-22T04:00:09.817Z,10.20
2023-05-22T04:02:40.043Z,10.93
2023-05-22T04:05:08.189Z,10.63
2023-05-22T04:07:34.838Z,10.60
2023-05-22T04:10:01.368Z,9.68
2023-05-22T04:12:28.025Z,9.80
2023-05-22T04:14:54.641Z,10.63
2023-05-22T04:17:21.157Z,10.25
2023-05-22T04:19:55.214Z,10.60
2023-05-22T04:22:22.778Z,10.18
2023-05-22T04:24:49.462Z,11.90
2023-05-22T04:27:16.341Z,9.95
2023-05-22T04:29:44.866Z,10.35
2023-05-22T04:32:11.546Z,10.07
2023-05-22T04:34:38.168Z,10.00
2023-05-22T04:37:05.324Z,9.85
2023-05-22T04:39:32.109Z,9.23
2023-05-22T04:41:58.706Z,9.90
2023-05-22T04:44:25.297Z,10.10
2023-05-22T04:46:51.907Z,9.57
2023-05-22T04:49:18.541Z,10.32
2023-05-22T04:51:45.254Z,9.07
2023-05-22T04:54:11.941Z,8.77
2023-05-22T04:56:39.284Z,8.93
2023-05-22T04:59:08.856Z,8.95
2023-05-22T05:01:35.975Z,8.55
2023-05-22T05:04:05.252Z,8.80
2023-05-22T05:06:31.902Z,8.85
2023-05-22T05:08:58.812Z,8.05
2023-05-22T05:11:26.035Z,8.30
2023-05-22T05:17:46.837Z,7.97
2023-05-22T05:20:17.401Z,7.93
2023-05-22T05:22:46.158Z,7.20
2023-05-22T05:25:13.684Z,7.30
2023-05-22T05:27:40.409Z,7.88
2023-05-22T05:30:08.228Z,8.00
2023-05-22T05:32:55.046Z,6.72
2023-05-22T05:35:26.645Z,6.97
2023-05-22T05:38:07.063Z,7.13
2023-05-22T05:40:35.334Z,7.43
2023-05-22T05:43:04.068Z,7.22
2023-05-22T05:45:30.801Z,6.80
2023-05-22T05:47:58.111Z,6.93
2023-05-22T05:50:25.145Z,6.80
2023-05-22T05:52:54.808Z,6.85
2023-05-22T05:55:21.975Z,6.43
2023-05-22T05:57:48.946Z,6.68
2023-05-22T06:00:23.296Z,6.70
2023-05-22T06:02:51.923Z,6.85
2023-05-22T06:05:48.508Z,6.07
2023-05-22T06:08:42.769Z,6.00
2023-05-22T06:11:09.693Z,5.60
2023-05-22T06:13:38.857Z,5.80
2023-05-22T06:16:06.860Z,6.45
2023-05-22T06:18:34.474Z,6.38
2023-05-22T06:21:01.106Z,6.72
2023-05-22T06:23:27.847Z,5.80
2023-05-22T06:25:55.639Z,5.63
2023-05-22T06:28:23.789Z,6.28
2023-05-22T06:30:51.781Z,5.82
2023-05-22T06:33:22.705Z,5.90
2023-05-22T06:35:50.900Z,5.72
2023-05-22T06:38:18.116Z,6.65
2023-05-22T06:40:44.828Z,6.13
2023-05-22T06:43:26.987Z,5.93
2023-05-22T06:50:44.033Z,5.32
2023-05-22T06:56:52.067Z,6.45
2023-05-22T07:03:39.731Z,5.03
2023-05-22T07:20:42.050Z,5.10
2023-05-22T07:23:24.418Z,4.90
2023-05-22T07:26:20.070Z,5.30
2023-05-22T07:29:03.810Z,5.38
2023-05-22T07:31:34.456Z,5.07
2023-05-22T07:34:01.928Z,4.88
2023-05-22T07:36:30.019Z,4.32
2023-05-22T07:39:14.531Z,5.15
2023-05-22T07:42:06.668Z,4.65
2023-05-22T07:44:47.727Z,5.00
2023-05-22T07:47:42.662Z,4.80
2023-05-22T07:56:56.429Z,4.40
2023-05-22T07:59:26.415Z,4.65
2023-05-22T08:02:08.235Z,4.70
2023-05-22T08:04:35.671Z,4.60
2023-05-22T08:07:05.778Z,4.75
2023-05-22T08:09:32.395Z,4.63
2023-05-22T08:11:58.993Z,4.90
2023-05-22T08:14:25.642Z,4.50
2023-05-22T08:16:53.159Z,4.95
2023-05-22T08:19:21.257Z,4.47
2023-05-22T08:21:52.956Z,4.85
2023-05-22T08:24:19.772Z,4.03
2023-05-22T08:26:46.356Z,4.65
2023-05-22T08:29:43.564Z,4.55
2023-05-22T08:32:17.106Z,4.63
2023-05-22T08:34:47.957Z,4.55
2023-05-22T08:37:35.245Z,4.78
2023-05-22T08:40:47.611Z,4.90
2023-05-22T08:43:15.420Z,4.30
2023-05-22T08:45:43.722Z,4.72
2023-05-22T08:48:12.644Z,4.20
2023-05-22T08:50:46.298Z,4.22
2023-05-22T08:53:14.881Z,3.92
2023-05-22T08:55:42.535Z,4.30
2023-05-22T08:58:10.133Z,4.20
2023-05-22T09:00:37.161Z,3.63
2023-05-22T09:03:07.240Z,4.30
2023-05-22T09:05:34.427Z,4.30
2023-05-22T09:08:15.952Z,4.53
2023-05-22T09:10:46.835Z,4.22
2023-05-22T09:13:23.182Z,4.32
2023-05-22T09:15:49.686Z,4.38
2023-05-22T09:18:17.706Z,4.13
2023-05-22T09:21:21.498Z,4.10
2023-05-22T09:24:01.614Z,3.92
2023-05-22T09:26:33.034Z,4.28
2023-05-22T09:28:59.873Z,3.90
2023-05-22T09:31:32.474Z,3.65
2023-05-22T09:33:59.888Z,3.60
2023-05-22T09:36:35.521Z,3.65
2023-05-22T09:41:30.476Z,3.42
2023-05-22T09:43:58.346Z,3.45
2023-05-22T09:46:26.367Z,3.60
2023-05-22T09:48:53.322Z,3.30
2023-05-22T09:51:23.924Z,3.10
2023-05-22T09:53:51.288Z,3.30
2023-05-22T09:56:27.146Z,3.40
2023-05-22T09:59:04.377Z,3.20
2023-05-22T10:01:32.056Z,3.20
2023-05-22T10:03:58.725Z,3.42
2023-05-22T10:06:27.266Z,2.78
2023-05-22T10:08:59.680Z,3.38
2023-05-22T10:11:29.194Z,2.90
2023-05-22T10:13:58.474Z,3.50
2023-05-22T10:16:26.067Z,3.35
2023-05-22T10:18:53.670Z,3.15
2023-05-22T10:21:21.223Z,3.47
2023-05-22T10:23:48.665Z,3.05
2023-05-22T10:26:15.972Z,3.45
2023-05-22T10:28:45.213Z,3.17
2023-05-22T10:31:14.466Z,3.78
2023-05-22T10:33:43.211Z,3.70
2023-05-22T10:36:13.530Z,3.50
2023-05-22T10:38:58.822Z,3.47
2023-05-22T10:41:26.334Z,3.45
2023-05-22T10:43:56.041Z,3.10
2023-05-22T10:46:22.667Z,3.10
2023-05-22T10:48:51.717Z,3.40
2023-05-22T10:51:19.745Z,3.40
2023-05-22T10:53:53.134Z,3.30
2023-05-22T10:56:20.818Z,3.42
2023-05-22T10:58:59.139Z,3.72
2023-05-22T11:01:26.451Z,3.20
2023-05-22T11:03:58.816Z,3.40
2023-05-22T11:06:37.733Z,3.72
2023-05-22T11:09:16.352Z,3.25
2023-05-22T11:11:43.135Z,3.35
2023-05-22T11:14:10.991Z,3.17
2023-05-22T11:16:41.334Z,3.05
2023-05-22T11:19:21.930Z,3.50
2023-05-22T11:21:50.228Z,3.53
2023-05-22T11:24:18.235Z,3.40
2023-05-22T11:27:00.477Z,3.65
2023-05-22T11:29:28.083Z,3.67
2023-05-22T11:31:54.910Z,3.10
2023-05-22T11:34:21.622Z,3.30
2023-05-22T11:36:48.414Z,3.40
2023-05-22T11:39:15.138Z,3.10
2023-05-22T11:41:41.626Z,3.40
2023-05-22T11:44:08.281Z,3.20
2023-05-22T11:46:35.003Z,3.20
2023-05-22T11:49:02.276Z,2.85
2023-05-22T11:51:34.557Z,3.08
2023-05-22T11:54:01.520Z,2.63
2023-05-22T11:56:28.148Z,3.00
2023-05-22T11:58:54.822Z,3.17
2023-05-22T12:01:21.326Z,3.50
2023-05-22T12:03:47.936Z,3.00
2023-05-22T12:06:16.504Z,3.10
2023-05-22T12:08:43.996Z,3.10
2023-05-22T12:11:11.615Z,3.00
2023-05-22T12:13:39.109Z,3.38
2023-05-22T12:16:17.950Z,3.13
2023-05-22T12:18:44.517Z,3.03
2023-05-22T12:21:11.129Z,3.42
2023-05-22T12:23:51.808Z,2.85
2023-05-22T12:26:19.568Z,3.28
2023-05-22T12:28:46.356Z,3.00
2023-05-22T12:31:20.149Z,3.03
2023-05-22T12:33:46.754Z,3.05
2023-05-22T12:36:13.272Z,3.10
2023-05-22T12:38:40.654Z,3.08
2023-05-22T12:41:08.016Z,3.10
2023-05-22T12:43:35.676Z,2.90
2023-05-22T12:46:05.379Z,3.20
2023-05-22T12:48:34.457Z,3.10
2023-05-22T12:51:01.147Z,3.47
2023-05-22T12:53:28.441Z,3.30
2023-05-22T12:55:55.094Z,3.25
2023-05-22T12:58:21.683Z,3.30
2023-05-22T13:00:48.309Z,3.05
2023-05-22T13:03:14.846Z,3.42
2023-05-22T13:05:42.063Z,3.47
2023-05-22T13:08:08.850Z,3.10
2023-05-22T13:10:36.118Z,3.33
2023-05-22T13:13:02.647Z,2.97
2023-05-22T13:15:29.652Z,3.45
2023-05-22T13:17:57.049Z,3.25
2023-05-22T13:20:23.728Z,3.25
2023-05-22T13:22:50.290Z,3.60
2023-05-22T13:25:19.131Z,3.17
2023-05-22T13:27:46.394Z,3.50
2023-05-22T13:30:13.397Z,3.00
2023-05-22T13:32:40.011Z,3.30
2023-05-22T13:35:06.814Z,3.20
2023-05-22T13:37:33.466Z,3.38
2023-05-22T13:40:00.566Z,3.28
2023-05-22T13:42:27.180Z,3.70
2023-05-22T13:44:53.937Z,3.50
2023-05-22T13:47:20.884Z,3.05
2023-05-22T13:49:47.398Z,3.45
2023-05-22T13:52:14.050Z,3.10
2023-05-22T13:54:40.813Z,3.20
2023-05-22T13:57:07.274Z,3.35
2023-05-22T13:59:33.918Z,3.38
2023-05-22T14:02:00.526Z,3.30
2023-05-22T14:04:27.175Z,3.38
2023-05-22T14:06:56.653Z,3.28
2023-05-22T14:09:23.182Z,3.30
2023-05-22T14:11:49.791Z,3.30
2023-05-22T14:14:16.516Z,3.22
2023-05-22T14:16:43.213Z,3.47
2023-05-22T14:19:09.871Z,3.45
2023-05-22T14:21:36.410Z,2.97
2023-05-22T14:24:04.542Z,3.72
2023-05-22T14:26:31.199Z,3.10
2023-05-22T14:28:57.906Z,3.00
2023-05-22T14:31:26.828Z,3.03
2023-05-22T14:33:53.425Z,3.55
2023-05-22T14:36:19.963Z,3.35
2023-05-22T14:38:47.613Z,3.13
2023-05-22T14:41:14.039Z,3.30
2023-05-22T14:43:40.720Z,3.10
2023-05-22T14:46:07.562Z,2.90
2023-05-22T14:48:34.047Z,3.05
2023-05-22T14:51:01.048Z,3.42
2023-05-22T14:53:30.533Z,2.92
2023-05-22T14:55:57.148Z,3.33
2023-05-22T14:58:23.945Z,3.17
2023-05-22T15:00:50.626Z,3.15
2023-05-22T15:03:19.118Z,3.13
2023-05-22T15:05:45.929Z,2.95
2023-05-22T15:08:12.430Z,3.30
2023-05-22T15:10:38.910Z,3.28
2023-05-22T15:13:05.582Z,3.15
2023-05-22T15:15:32.131Z,3.30
2023-05-22T15:18:02.482Z,3.28
2023-05-22T15:20:29.105Z,3.70
2023-05-22T15:22:55.642Z,3.67
2023-05-22T15:25:22.310Z,3.15
2023-05-22T15:27:48.842Z,3.13
2023-05-22T15:30:16.955Z,3.30
2023-05-22T15:32:43.747Z,3.55
2023-05-22T15:35:10.949Z,3.17
2023-05-22T15:37:37.583Z,3.13
2023-05-22T15:40:05.805Z,3.50
2023-05-22T15:42:32.480Z,3.60
2023-05-22T15:44:59.737Z,3.75
2023-05-22T15:47:26.444Z,3.25
2023-05-22T15:49:54.478Z,2.95
2023-05-22T15:52:23.251Z,3.20
2023-05-22T15:54:54.980Z,3.75
2023-05-22T15:57:22.927Z,3.17
2023-05-22T15:59:50.913Z,3.10
2023-05-22T16:02:18.580Z,3.10
2023-05-22T16:04:45.524Z,3.08
2023-05-22T16:07:12.099Z,3.28
2023-05-22T16:09:38.802Z,3.35
2023-05-22T16:12:05.567Z,3.42
2023-05-22T16:14:32.225Z,2.83
2023-05-22T16:16:58.822Z,3.33
2023-05-22T16:19:25.414Z,3.25
2023-05-22T16:21:52.119Z,3.22
2023-05-22T16:24:18.657Z,3.00
2023-05-22T16:26:45.367Z,3.30
2023-05-22T16:29:12.059Z,2.95
2023-05-22T16:31:38.638Z,2.95
2023-05-22T16:34:05.503Z,3.22
2023-05-22T16:36:32.607Z,3.30
2023-05-22T16:38:59.250Z,3.10
2023-05-22T16:41:26.807Z,3.17
2023-05-22T16:43:53.624Z,3.55
2023-05-22T16:46:20.202Z,3.33
2023-05-22T16:48:46.699Z,3.03
2023-05-22T16:51:13.290Z,3.67
2023-05-22T16:53:40.623Z,3.30
2023-05-22T16:56:07.541Z,3.42
2023-05-22T16:58:34.150Z,3.72
2023-05-22T17:01:00.992Z,3.25
2023-05-22T17:03:27.928Z,3.88
2023-05-22T17:05:54.669Z,4.25
2023-05-22T17:08:21.285Z,3.90
2023-05-22T17:10:47.812Z,3.40
2023-05-22T17:13:20.741Z,3.40
2023-05-22T17:15:48.273Z,3.55
2023-05-22T17:18:20.009Z,3.83
2023-05-22T17:20:47.342Z,4.22
2023-05-22T17:23:14.210Z,4.05
2023-05-22T17:25:41.788Z,3.67
2023-05-22T17:28:08.707Z,3.55
2023-05-22T17:30:35.721Z,3.70
2023-05-22T17:33:03.690Z,3.70
2023-05-22T17:35:30.616Z,3.67
2023-05-22T17:37:57.371Z,3.90
2023-05-22T17:40:29.581Z,3.53
2023-05-22T17:43:07.176Z,3.13
2023-05-22T17:45:33.629Z,3.20
2023-05-22T17:48:00.316Z,3.05
2023-05-22T17:50:26.976Z,3.55
2023-05-22T17:52:53.409Z,3.25
2023-05-22T17:55:20.944Z,3.13
2023-05-22T17:57:48.074Z,3.20
2023-05-22T18:00:14.811Z,3.10
2023-05-22T18:02:41.634Z,3.38
2023-05-22T18:05:08.706Z,2.97
2023-05-22T18:07:35.316Z,2.97
2023-05-22T18:10:01.892Z,3.15
2023-05-22T18:12:32.008Z,3.03
2023-05-22T18:14:59.185Z,3.20
2023-05-22T18:17:25.731Z,3.20
2023-05-22T18:19:52.352Z,3.33
2023-05-22T18:22:18.953Z,3.22
2023-05-22T18:24:45.559Z,3.65
2023-05-22T18:27:12.257Z,2.95
2023-05-22T18:29:39.610Z,4.10
2023-05-22T18:32:09.326Z,3.42
2023-05-22T18:34:37.587Z,3.47
2023-05-22T18:37:04.706Z,3.35
2023-05-22T18:39:31.416Z,3.50
2023-05-22T18:41:58.657Z,3.30
2023-05-22T18:44:25.319Z,3.70
2023-05-22T18:46:52.050Z,2.95
2023-05-22T18:49:18.500Z,3.47
2023-05-22T18:51:45.028Z,3.63
2023-05-22T18:54:11.632Z,3.40
2023-05-22T18:56:39.107Z,3.78
2023-05-22T18:59:05.705Z,3.60
2023-05-22T19:01:32.511Z,3.72
2023-05-22T19:03:59.193Z,3.30
2023-05-22T19:06:26.195Z,3.85
2023-05-22T19:08:52.974Z,3.78
2023-05-22T19:11:19.600Z,4.15
2023-05-22T19:13:46.152Z,4.72
2023-05-22T19:16:14.597Z,4.93
2023-05-22T19:18:41.443Z,5.35
2023-05-22T19:21:08.182Z,5.43
2023-05-22T19:23:34.734Z,4.85
2023-05-22T19:26:01.498Z,4.95
2023-05-22T19:28:28.150Z,4.30
2023-05-22T19:30:57.573Z,3.88
2023-05-22T19:33:26.126Z,4.40
2023-05-22T19:35:53.036Z,3.50
2023-05-22T19:38:19.595Z,4.03
2023-05-22T19:40:46.387Z,4.13
2023-05-22T19:43:13.096Z,3.80
2023-05-22T19:45:39.751Z,3.75
2023-05-22T19:48:06.478Z,3.90
2023-05-22T19:50:33.311Z,4.20
2023-05-22T19:52:59.866Z,4.43
2023-05-22T19:55:26.498Z,4.10
2023-05-22T19:57:55.692Z,4.20
2023-05-22T20:00:22.713Z,3.65
2023-05-22T20:02:49.352Z,5.90
2023-05-22T20:05:16.156Z,5.82
2023-05-22T20:07:43.372Z,4.85
2023-05-22T20:10:10.378Z,5.28
2023-05-22T20:12:37.530Z,5.13
2023-05-22T20:15:04.487Z,4.38
2023-05-22T20:17:31.056Z,4.15
2023-05-22T20:19:58.656Z,4.30
2023-05-22T20:22:26.440Z,4.30
2023-05-22T20:24:53.256Z,4.00
2023-05-22T20:27:19.898Z,4.38
2023-05-22T20:29:46.593Z,5.35
2023-05-22T20:32:13.315Z,4.68
2023-05-22T20:34:40.062Z,5.32
2023-05-22T20:37:08.947Z,4.65
2023-05-22T20:39:35.468Z,5.00
2023-05-22T20:42:04.932Z,5.60
2023-05-22T20:44:31.691Z,4.60
2023-05-22T20:46:58.358Z,4.82
2023-05-22T20:49:25.025Z,5.10
2023-05-22T20:51:51.646Z,6.25
2023-05-22T20:54:18.203Z,5.55
2023-05-22T20:56:44.746Z,5.78
2023-05-22T20:59:11.437Z,5.75
2023-05-22T21:01:38.035Z,6.32
2023-05-22T21:04:04.746Z,5.95
2023-05-22T21:06:31.606Z,5.32
2023-05-22T21:09:01.599Z,5.18
2023-05-22T21:11:28.495Z,6.03
2023-05-22T21:13:55.033Z,6.57
2023-05-22T21:16:21.620Z,6.55
2023-05-22T21:18:49.310Z,6.40
2023-05-22T21:21:17.897Z,6.93
2023-05-22T21:23:44.496Z,7.00
2023-05-22T21:26:11.164Z,5.57
2023-05-22T21:28:37.945Z,5.93
2023-05-22T21:31:04.729Z,5.90
2023-05-22T21:33:31.404Z,6.18
2023-05-22T21:35:58.076Z,5.93
2023-05-22T21:38:24.531Z,6.25
2023-05-22T21:40:51.358Z,5.88
2023-05-22T21:43:18.024Z,6.75
2023-05-22T21:45:44.475Z,5.50
2023-05-22T21:48:11.610Z,6.00
2023-05-22T21:50:38.616Z,6.13
2023-05-22T21:53:05.324Z,6.90
2023-05-22T21:55:31.930Z,6.88
2023-05-22T21:57:58.540Z,6.00
2023-05-22T22:00:25.033Z,5.70
2023-05-22T22:02:51.759Z,5.78
2023-05-22T22:05:18.842Z,5.75
2023-05-22T22:07:45.560Z,5.00
2023-05-22T22:10:12.225Z,5.47
2023-05-22T22:12:38.831Z,5.93
2023-05-22T22:15:05.539Z,5.68
2023-05-22T22:17:32.153Z,5.82
2023-05-22T22:19:58.757Z,6.70
2023-05-22T22:22:25.357Z,7.85
2023-05-22T22:24:51.934Z,6.50
2023-05-22T22:27:19.659Z,4.25
2023-05-22T22:29:46.520Z,4.60
2023-05-22T22:32:13.284Z,5.75
2023-05-22T22:34:39.897Z,5.88
2023-05-22T22:37:06.945Z,5.10
2023-05-22T22:39:33.524Z,4.35
2023-05-22T22:42:06.047Z,4.72
2023-05-22T22:44:32.723Z,6.07
2023-05-22T22:47:01.851Z,6.05
2023-05-22T22:49:28.443Z,6.35
2023-05-22T22:51:54.967Z,6.47
2023-05-22T22:54:21.568Z,7.60
2023-05-22T22:56:49.709Z,6.50
2023-05-22T22:59:16.601Z,6.35
2023-05-22T23:01:43.157Z,6.80
2023-05-22T23:04:09.870Z,6.15
2023-05-22T23:06:36.527Z,6.40
2023-05-22T23:09:03.935Z,6.35
2023-05-22T23:11:39.938Z,7.22
2023-05-22T23:14:08.311Z,7.40
2023-05-22T23:16:40.761Z,8.35
2023-05-22T23:19:08.318Z,8.75
2023-05-22T23:21:35.073Z,9.20
2023-05-22T23:24:02.542Z,9.40
2023-05-22T23:26:29.220Z,9.10
2023-05-22T23:28:55.871Z,9.02
2023-05-22T23:31:32.817Z,10.02
2023-05-22T23:34:02.095Z,10.27
2023-05-22T23:36:28.645Z,9.57
2023-05-22T23:38:55.271Z,9.90
2023-05-22T23:41:21.800Z,9.88
2023-05-22T23:43:48.408Z,10.15
2023-05-22T23:46:15.007Z,10.05
2023-05-22T23:48:42.350Z,10.38
2023-05-22T23:51:10.122Z,11.57
2023-05-22T23:53:36.960Z,12.73
2023-05-22T23:56:03.921Z,12.25
2023-05-22T23:58:31.927Z,11.60
